sensor_id;sensor_type;location;lat;lon;timestamp;P1;durP1;ratioP1;P2;durP2;ratioP2
18526;SDS011;9393;42.158;24.748;2022-12-07T00:02:31;51.90;;;25.67;;
18526;SDS011;9393;42.158;24.748;2022-12-07T00:05:35;49.20;;;24.63;;
18526;SDS011;9393;42.158;24.748;2022-12-07T00:08:40;49.03;;;23.80;;
18526;SDS011;9393;42.158;24.748;2022-12-07T00:11:44;48.13;;;24.27;;
18526;SDS011;9393;42.158;24.748;2022-12-07T00:14:50;44.47;;;23.90;;
18526;SDS011;9393;42.158;24.748;2022-12-07T00:17:54;44.17;;;22.23;;
18526;SDS011;9393;42.158;24.748;2022-12-07T00:21:00;44.63;;;22.23;;
18526;SDS011;9393;42.158;24.748;2022-12-07T00:24:06;42.43;;;21.07;;
18526;SDS011;9393;42.158;24.748;2022-12-07T00:27:10;41.80;;;20.07;;
18526;SDS011;9393;42.158;24.748;2022-12-07T00:30:15;35.27;;;19.97;;
18526;SDS011;9393;42.158;24.748;2022-12-07T00:33:18;37.87;;;19.20;;
18526;SDS011;9393;42.158;24.748;2022-12-07T00:36:23;36.47;;;19.50;;
18526;SDS011;9393;42.158;24.748;2022-12-07T00:39:29;38.27;;;19.20;;
18526;SDS011;9393;42.158;24.748;2022-12-07T00:42:33;34.43;;;18.90;;
18526;SDS011;9393;42.158;24.748;2022-12-07T00:45:37;34.03;;;18.77;;
18526;SDS011;9393;42.158;24.748;2022-12-07T00:48:40;39.10;;;19.53;;
18526;SDS011;9393;42.158;24.748;2022-12-07T00:51:45;35.40;;;18.90;;
18526;SDS011;9393;42.158;24.748;2022-12-07T00:54:52;35.73;;;19.80;;
18526;SDS011;9393;42.158;24.748;2022-12-07T00:57:56;38.00;;;19.00;;
18526;SDS011;9393;42.158;24.748;2022-12-07T01:01:00;38.40;;;19.13;;
18526;SDS011;9393;42.158;24.748;2022-12-07T01:04:05;31.03;;;16.17;;
18526;SDS011;9393;42.158;24.748;2022-12-07T01:07:09;33.03;;;18.17;;
18526;SDS011;9393;42.158;24.748;2022-12-07T01:10:14;34.60;;;17.03;;
18526;SDS011;9393;42.158;24.748;2022-12-07T01:13:18;33.53;;;17.40;;
18526;SDS011;9393;42.158;24.748;2022-12-07T01:16:22;33.50;;;16.30;;
18526;SDS011;9393;42.158;24.748;2022-12-07T01:19:27;31.43;;;16.83;;
18526;SDS011;9393;42.158;24.748;2022-12-07T01:22:31;36.07;;;17.47;;
18526;SDS011;9393;42.158;24.748;2022-12-07T01:25:40;33.47;;;16.53;;
18526;SDS011;9393;42.158;24.748;2022-12-07T01:28:44;30.03;;;16.30;;
18526;SDS011;9393;42.158;24.748;2022-12-07T01:31:48;33.57;;;17.53;;
18526;SDS011;9393;42.158;24.748;2022-12-07T01:34:52;32.07;;;16.87;;
18526;SDS011;9393;42.158;24.748;2022-12-07T01:37:55;39.07;;;18.23;;
18526;SDS011;9393;42.158;24.748;2022-12-07T01:41:01;31.40;;;17.93;;
18526;SDS011;9393;42.158;24.748;2022-12-07T01:44:10;34.20;;;17.97;;
18526;SDS011;9393;42.158;24.748;2022-12-07T01:47:18;33.27;;;16.90;;
18526;SDS011;9393;42.158;24.748;2022-12-07T01:50:23;33.10;;;17.27;;
18526;SDS011;9393;42.158;24.748;2022-12-07T01:53:29;34.00;;;17.47;;
18526;SDS011;9393;42.158;24.748;2022-12-07T01:56:36;33.77;;;17.40;;
18526;SDS011;9393;42.158;24.748;2022-12-07T01:59:41;30.60;;;16.60;;
18526;SDS011;9393;42.158;24.748;2022-12-07T02:02:48;31.03;;;16.83;;
18526;SDS011;9393;42.158;24.748;2022-12-07T02:05:56;32.57;;;17.13;;
18526;SDS011;9393;42.158;24.748;2022-12-07T02:09:01;35.27;;;17.43;;
18526;SDS011;9393;42.158;24.748;2022-12-07T02:12:06;32.33;;;18.00;;
18526;SDS011;9393;42.158;24.748;2022-12-07T02:15:10;31.03;;;17.53;;
18526;SDS011;9393;42.158;24.748;2022-12-07T02:18:16;34.70;;;17.37;;
18526;SDS011;9393;42.158;24.748;2022-12-07T02:21:28;33.97;;;17.40;;
18526;SDS011;9393;42.158;24.748;2022-12-07T02:24:48;35.17;;;17.20;;
18526;SDS011;9393;42.158;24.748;2022-12-07T02:28:00;31.73;;;17.73;;
18526;SDS011;9393;42.158;24.748;2022-12-07T02:31:11;30.67;;;15.50;;
18526;SDS011;9393;42.158;24.748;2022-12-07T02:34:22;28.53;;;15.80;;
18526;SDS011;9393;42.158;24.748;2022-12-07T02:37:34;28.00;;;15.57;;
18526;SDS011;9393;42.158;24.748;2022-12-07T02:40:43;32.63;;;16.23;;
18526;SDS011;9393;42.158;24.748;2022-12-07T02:43:52;27.43;;;15.33;;
18526;SDS011;9393;42.158;24.748;2022-12-07T02:47:00;28.97;;;14.90;;
18526;SDS011;9393;42.158;24.748;2022-12-07T02:50:07;30.10;;;14.63;;
18526;SDS011;9393;42.158;24.748;2022-12-07T02:56:35;32.50;;;15.03;;
18526;SDS011;9393;42.158;24.748;2022-12-07T02:59:49;30.07;;;14.27;;
18526;SDS011;9393;42.158;24.748;2022-12-07T03:03:06;27.90;;;14.47;;
18526;SDS011;9393;42.158;24.748;2022-12-07T03:06:15;25.93;;;14.33;;
18526;SDS011;9393;42.158;24.748;2022-12-07T03:09:26;30.10;;;13.70;;
18526;SDS011;9393;42.158;24.748;2022-12-07T03:12:37;28.63;;;13.43;;
18526;SDS011;9393;42.158;24.748;2022-12-07T03:15:49;29.40;;;15.13;;
18526;SDS011;9393;42.158;24.748;2022-12-07T03:19:03;25.43;;;13.47;;
18526;SDS011;9393;42.158;24.748;2022-12-07T03:22:12;28.60;;;13.57;;
18526;SDS011;9393;42.158;24.748;2022-12-07T03:25:17;29.67;;;13.50;;
18526;SDS011;9393;42.158;24.748;2022-12-07T03:28:20;30.20;;;14.43;;
18526;SDS011;9393;42.158;24.748;2022-12-07T03:31:28;31.70;;;15.60;;
18526;SDS011;9393;42.158;24.748;2022-12-07T03:34:38;33.67;;;15.20;;
18526;SDS011;9393;42.158;24.748;2022-12-07T03:37:48;26.00;;;13.77;;
18526;SDS011;9393;42.158;24.748;2022-12-07T03:40:57;26.67;;;14.70;;
18526;SDS011;9393;42.158;24.748;2022-12-07T03:44:04;26.57;;;14.00;;
18526;SDS011;9393;42.158;24.748;2022-12-07T03:47:11;26.37;;;13.93;;
18526;SDS011;9393;42.158;24.748;2022-12-07T03:50:21;22.27;;;13.30;;
18526;SDS011;9393;42.158;24.748;2022-12-07T03:53:33;28.77;;;14.10;;
18526;SDS011;9393;42.158;24.748;2022-12-07T03:56:40;26.47;;;14.67;;
18526;SDS011;9393;42.158;24.748;2022-12-07T03:59:46;26.37;;;13.53;;
18526;SDS011;9393;42.158;24.748;2022-12-07T04:02:51;27.43;;;14.27;;
18526;SDS011;9393;42.158;24.748;2022-12-07T04:05:57;30.07;;;13.63;;
18526;SDS011;9393;42.158;24.748;2022-12-07T04:09:00;24.53;;;11.77;;
18526;SDS011;9393;42.158;24.748;2022-12-07T04:12:04;24.63;;;12.20;;
18526;SDS011;9393;42.158;24.748;2022-12-07T04:15:08;25.43;;;13.50;;
18526;SDS011;9393;42.158;24.748;2022-12-07T04:18:12;27.50;;;12.47;;
18526;SDS011;9393;42.158;24.748;2022-12-07T04:21:17;23.90;;;12.67;;
18526;SDS011;9393;42.158;24.748;2022-12-07T04:24:21;33.57;;;14.83;;
18526;SDS011;9393;42.158;24.748;2022-12-07T04:27:25;28.93;;;14.73;;
18526;SDS011;9393;42.158;24.748;2022-12-07T04:30:29;28.53;;;14.57;;
18526;SDS011;9393;42.158;24.748;2022-12-07T04:33:33;29.90;;;14.10;;
18526;SDS011;9393;42.158;24.748;2022-12-07T04:36:39;27.07;;;14.53;;
18526;SDS011;9393;42.158;24.748;2022-12-07T04:39:43;27.33;;;14.07;;
18526;SDS011;9393;42.158;24.748;2022-12-07T04:42:47;34.43;;;15.63;;
18526;SDS011;9393;42.158;24.748;2022-12-07T04:45:51;33.97;;;15.37;;
18526;SDS011;9393;42.158;24.748;2022-12-07T04:48:54;30.03;;;14.90;;
18526;SDS011;9393;42.158;24.748;2022-12-07T04:52:00;30.67;;;13.53;;
18526;SDS011;9393;42.158;24.748;2022-12-07T04:55:04;28.43;;;15.10;;
18526;SDS011;9393;42.158;24.748;2022-12-07T04:58:08;29.80;;;14.20;;
18526;SDS011;9393;42.158;24.748;2022-12-07T05:01:12;32.03;;;14.83;;
18526;SDS011;9393;42.158;24.748;2022-12-07T05:04:16;31.53;;;15.37;;
18526;SDS011;9393;42.158;24.748;2022-12-07T05:07:22;39.43;;;19.20;;
18526;SDS011;9393;42.158;24.748;2022-12-07T05:10:26;39.20;;;21.57;;
18526;SDS011;9393;42.158;24.748;2022-12-07T05:13:29;44.47;;;22.90;;
18526;SDS011;9393;42.158;24.748;2022-12-07T05:16:33;46.37;;;23.70;;
18526;SDS011;9393;42.158;24.748;2022-12-07T05:19:37;47.37;;;23.87;;
18526;SDS011;9393;42.158;24.748;2022-12-07T05:22:42;47.33;;;23.33;;
18526;SDS011;9393;42.158;24.748;2022-12-07T05:25:46;46.37;;;23.20;;
18526;SDS011;9393;42.158;24.748;2022-12-07T05:28:50;49.30;;;24.77;;
18526;SDS011;9393;42.158;24.748;2022-12-07T05:31:54;41.20;;;21.87;;
18526;SDS011;9393;42.158;24.748;2022-12-07T05:34:58;45.50;;;20.87;;
18526;SDS011;9393;42.158;24.748;2022-12-07T05:38:03;35.17;;;18.77;;
18526;SDS011;9393;42.158;24.748;2022-12-07T05:41:07;38.30;;;18.17;;
18526;SDS011;9393;42.158;24.748;2022-12-07T05:44:33;38.60;;;19.63;;
18526;SDS011;9393;42.158;24.748;2022-12-07T05:47:37;37.00;;;17.73;;
18526;SDS011;9393;42.158;24.748;2022-12-07T05:50:41;37.87;;;17.47;;
18526;SDS011;9393;42.158;24.748;2022-12-07T05:53:47;35.37;;;17.77;;
18526;SDS011;9393;42.158;24.748;2022-12-07T05:56:50;50.17;;;19.73;;
18526;SDS011;9393;42.158;24.748;2022-12-07T05:59:54;35.77;;;18.43;;
18526;SDS011;9393;42.158;24.748;2022-12-07T06:02:57;45.87;;;21.47;;
18526;SDS011;9393;42.158;24.748;2022-12-07T06:06:01;43.07;;;21.93;;
18526;SDS011;9393;42.158;24.748;2022-12-07T06:09:06;39.50;;;20.67;;
18526;SDS011;9393;42.158;24.748;2022-12-07T06:12:10;39.37;;;21.30;;
18526;SDS011;9393;42.158;24.748;2022-12-07T06:15:32;35.80;;;18.07;;
18526;SDS011;9393;42.158;24.748;2022-12-07T06:18:38;40.60;;;17.00;;
18526;SDS011;9393;42.158;24.748;2022-12-07T06:21:42;32.83;;;17.07;;
18526;SDS011;9393;42.158;24.748;2022-12-07T06:24:47;35.63;;;16.43;;
18526;SDS011;9393;42.158;24.748;2022-12-07T06:27:51;31.67;;;16.10;;
18526;SDS011;9393;42.158;24.748;2022-12-07T06:30:57;33.30;;;17.90;;
18526;SDS011;9393;42.158;24.748;2022-12-07T06:34:02;33.33;;;16.30;;
18526;SDS011;9393;42.158;24.748;2022-12-07T06:37:07;28.07;;;14.70;;
18526;SDS011;9393;42.158;24.748;2022-12-07T06:40:12;24.73;;;13.10;;
18526;SDS011;9393;42.158;24.748;2022-12-07T06:43:16;28.13;;;14.80;;
18526;SDS011;9393;42.158;24.748;2022-12-07T06:46:20;31.63;;;13.77;;
18526;SDS011;9393;42.158;24.748;2022-12-07T06:49:24;34.30;;;14.83;;
18526;SDS011;9393;42.158;24.748;2022-12-07T06:52:28;28.37;;;14.93;;
18526;SDS011;9393;42.158;24.748;2022-12-07T06:55:34;34.47;;;15.30;;
18526;SDS011;9393;42.158;24.748;2022-12-07T06:58:38;30.80;;;15.27;;
18526;SDS011;9393;42.158;24.748;2022-12-07T07:01:42;35.83;;;16.30;;
18526;SDS011;9393;42.158;24.748;2022-12-07T07:04:46;33.70;;;16.63;;
18526;SDS011;9393;42.158;24.748;2022-12-07T07:07:50;37.10;;;17.70;;
18526;SDS011;9393;42.158;24.748;2022-12-07T07:11:15;32.30;;;17.60;;
18526;SDS011;9393;42.158;24.748;2022-12-07T07:14:19;35.33;;;18.87;;
18526;SDS011;9393;42.158;24.748;2022-12-07T07:17:23;36.77;;;19.50;;
18526;SDS011;9393;42.158;24.748;2022-12-07T07:20:27;35.07;;;18.77;;
18526;SDS011;9393;42.158;24.748;2022-12-07T07:23:31;42.97;;;19.67;;
18526;SDS011;9393;42.158;24.748;2022-12-07T07:26:36;42.70;;;20.53;;
18526;SDS011;9393;42.158;24.748;2022-12-07T07:29:40;38.13;;;20.73;;
18526;SDS011;9393;42.158;24.748;2022-12-07T07:32:43;42.23;;;22.27;;
18526;SDS011;9393;42.158;24.748;2022-12-07T07:35:47;41.00;;;22.00;;
18526;SDS011;9393;42.158;24.748;2022-12-07T07:38:51;47.23;;;22.73;;
18526;SDS011;9393;42.158;24.748;2022-12-07T07:41:56;40.13;;;21.23;;
18526;SDS011;9393;42.158;24.748;2022-12-07T07:45:01;43.77;;;21.20;;
18526;SDS011;9393;42.158;24.748;2022-12-07T07:48:06;47.57;;;21.03;;
18526;SDS011;9393;42.158;24.748;2022-12-07T07:51:10;40.53;;;21.50;;
18526;SDS011;9393;42.158;24.748;2022-12-07T07:54:14;48.17;;;22.33;;
18526;SDS011;9393;42.158;24.748;2022-12-07T07:57:19;42.13;;;21.43;;
18526;SDS011;9393;42.158;24.748;2022-12-07T08:00:23;45.00;;;21.07;;
18526;SDS011;9393;42.158;24.748;2022-12-07T08:03:27;43.93;;;21.17;;
18526;SDS011;9393;42.158;24.748;2022-12-07T08:06:30;47.27;;;24.33;;
18526;SDS011;9393;42.158;24.748;2022-12-07T08:09:34;45.63;;;23.93;;
18526;SDS011;9393;42.158;24.748;2022-12-07T08:12:40;55.07;;;26.60;;
18526;SDS011;9393;42.158;24.748;2022-12-07T08:15:58;52.17;;;27.80;;
18526;SDS011;9393;42.158;24.748;2022-12-07T08:19:07;55.73;;;30.30;;
18526;SDS011;9393;42.158;24.748;2022-12-07T08:22:11;57.17;;;29.73;;
18526;SDS011;9393;42.158;24.748;2022-12-07T08:25:14;54.33;;;29.47;;
18526;SDS011;9393;42.158;24.748;2022-12-07T08:28:20;73.50;;;35.07;;
18526;SDS011;9393;42.158;24.748;2022-12-07T08:31:23;70.00;;;36.17;;
18526;SDS011;9393;42.158;24.748;2022-12-07T08:34:29;54.30;;;29.73;;
18526;SDS011;9393;42.158;24.748;2022-12-07T08:37:33;45.13;;;25.30;;
18526;SDS011;9393;42.158;24.748;2022-12-07T08:40:37;49.30;;;26.07;;
18526;SDS011;9393;42.158;24.748;2022-12-07T08:43:42;47.23;;;25.00;;
18526;SDS011;9393;42.158;24.748;2022-12-07T08:46:46;43.93;;;24.90;;
18526;SDS011;9393;42.158;24.748;2022-12-07T08:49:53;50.53;;;26.57;;
18526;SDS011;9393;42.158;24.748;2022-12-07T08:52:57;53.03;;;26.13;;
18526;SDS011;9393;42.158;24.748;2022-12-07T08:56:02;44.33;;;24.73;;
18526;SDS011;9393;42.158;24.748;2022-12-07T08:59:08;49.43;;;26.23;;
18526;SDS011;9393;42.158;24.748;2022-12-07T09:02:12;44.00;;;24.63;;
18526;SDS011;9393;42.158;24.748;2022-12-07T09:05:16;50.20;;;26.23;;
18526;SDS011;9393;42.158;24.748;2022-12-07T09:08:20;46.90;;;25.27;;
18526;SDS011;9393;42.158;24.748;2022-12-07T09:11:27;48.03;;;26.97;;
18526;SDS011;9393;42.158;24.748;2022-12-07T09:14:32;55.57;;;28.77;;
18526;SDS011;9393;42.158;24.748;2022-12-07T09:17:36;54.10;;;27.97;;
18526;SDS011;9393;42.158;24.748;2022-12-07T09:20:39;50.97;;;28.73;;
18526;SDS011;9393;42.158;24.748;2022-12-07T09:23:43;52.43;;;28.53;;
18526;SDS011;9393;42.158;24.748;2022-12-07T09:26:47;59.57;;;29.27;;
18526;SDS011;9393;42.158;24.748;2022-12-07T09:29:52;52.33;;;29.27;;
18526;SDS011;9393;42.158;24.748;2022-12-07T09:32:57;49.57;;;28.23;;
18526;SDS011;9393;42.158;24.748;2022-12-07T09:36:01;56.27;;;29.07;;
18526;SDS011;9393;42.158;24.748;2022-12-07T09:39:06;56.50;;;30.07;;
18526;SDS011;9393;42.158;24.748;2022-12-07T09:42:11;54.60;;;30.30;;
18526;SDS011;9393;42.158;24.748;2022-12-07T09:45:31;49.17;;;26.87;;
18526;SDS011;9393;42.158;24.748;2022-12-07T09:48:37;49.87;;;25.90;;
18526;SDS011;9393;42.158;24.748;2022-12-07T09:51:42;47.07;;;23.40;;
18526;SDS011;9393;42.158;24.748;2022-12-07T09:54:46;41.67;;;22.13;;
18526;SDS011;9393;42.158;24.748;2022-12-07T09:57:52;50.73;;;22.87;;
18526;SDS011;9393;42.158;24.748;2022-12-07T10:01:00;43.87;;;22.57;;
18526;SDS011;9393;42.158;24.748;2022-12-07T10:04:14;42.73;;;21.60;;
18526;SDS011;9393;42.158;24.748;2022-12-07T10:07:20;38.30;;;19.07;;
18526;SDS011;9393;42.158;24.748;2022-12-07T10:10:24;35.83;;;19.43;;
18526;SDS011;9393;42.158;24.748;2022-12-07T10:13:34;35.67;;;19.30;;
18526;SDS011;9393;42.158;24.748;2022-12-07T10:16:41;40.40;;;21.80;;
18526;SDS011;9393;42.158;24.748;2022-12-07T10:19:45;37.93;;;20.77;;
18526;SDS011;9393;42.158;24.748;2022-12-07T10:22:58;35.20;;;20.73;;
18526;SDS011;9393;42.158;24.748;2022-12-07T10:26:21;40.67;;;19.83;;
18526;SDS011;9393;42.158;24.748;2022-12-07T10:29:31;35.63;;;18.80;;
18526;SDS011;9393;42.158;24.748;2022-12-07T10:32:39;31.73;;;17.70;;
18526;SDS011;9393;42.158;24.748;2022-12-07T10:35:44;32.63;;;18.53;;
18526;SDS011;9393;42.158;24.748;2022-12-07T10:38:48;33.47;;;17.07;;
18526;SDS011;9393;42.158;24.748;2022-12-07T10:41:55;31.80;;;19.00;;
18526;SDS011;9393;42.158;24.748;2022-12-07T10:45:08;29.40;;;18.83;;
18526;SDS011;9393;42.158;24.748;2022-12-07T10:48:19;35.37;;;18.40;;
18526;SDS011;9393;42.158;24.748;2022-12-07T10:51:33;31.47;;;18.10;;
18526;SDS011;9393;42.158;24.748;2022-12-07T10:54:50;35.27;;;18.63;;
18526;SDS011;9393;42.158;24.748;2022-12-07T10:58:15;32.23;;;17.63;;
18526;SDS011;9393;42.158;24.748;2022-12-07T11:01:32;33.03;;;19.27;;
18526;SDS011;9393;42.158;24.748;2022-12-07T11:04:49;34.80;;;19.00;;
18526;SDS011;9393;42.158;24.748;2022-12-07T11:08:04;35.73;;;19.37;;
18526;SDS011;9393;42.158;24.748;2022-12-07T11:11:19;36.17;;;19.17;;
18526;SDS011;9393;42.158;24.748;2022-12-07T11:14:31;32.97;;;18.27;;
18526;SDS011;9393;42.158;24.748;2022-12-07T11:17:46;38.00;;;20.97;;
18526;SDS011;9393;42.158;24.748;2022-12-07T11:20:59;39.53;;;21.97;;
18526;SDS011;9393;42.158;24.748;2022-12-07T11:24:13;37.47;;;20.60;;
18526;SDS011;9393;42.158;24.748;2022-12-07T11:27:22;33.87;;;20.13;;
18526;SDS011;9393;42.158;24.748;2022-12-07T11:30:34;39.00;;;20.17;;
18526;SDS011;9393;42.158;24.748;2022-12-07T11:33:44;33.90;;;18.67;;
18526;SDS011;9393;42.158;24.748;2022-12-07T11:36:54;35.83;;;18.50;;
18526;SDS011;9393;42.158;24.748;2022-12-07T11:40:00;32.13;;;18.93;;
18526;SDS011;9393;42.158;24.748;2022-12-07T11:43:09;33.07;;;19.53;;
18526;SDS011;9393;42.158;24.748;2022-12-07T11:46:20;35.63;;;19.27;;
18526;SDS011;9393;42.158;24.748;2022-12-07T11:49:33;37.93;;;19.57;;
18526;SDS011;9393;42.158;24.748;2022-12-07T11:52:47;39.13;;;20.07;;
18526;SDS011;9393;42.158;24.748;2022-12-07T11:55:56;40.47;;;19.73;;
18526;SDS011;9393;42.158;24.748;2022-12-07T11:59:06;29.40;;;16.17;;
18526;SDS011;9393;42.158;24.748;2022-12-07T12:02:16;39.67;;;17.87;;
18526;SDS011;9393;42.158;24.748;2022-12-07T12:05:27;34.27;;;18.23;;
18526;SDS011;9393;42.158;24.748;2022-12-07T12:08:34;34.33;;;17.53;;
18526;SDS011;9393;42.158;24.748;2022-12-07T12:12:11;36.97;;;18.97;;
18526;SDS011;9393;42.158;24.748;2022-12-07T12:15:55;46.80;;;23.43;;
18526;SDS011;9393;42.158;24.748;2022-12-07T12:19:19;40.33;;;22.33;;
18526;SDS011;9393;42.158;24.748;2022-12-07T12:22:33;32.23;;;17.97;;
18526;SDS011;9393;42.158;24.748;2022-12-07T12:25:44;33.63;;;18.37;;
18526;SDS011;9393;42.158;24.748;2022-12-07T12:28:50;46.00;;;24.27;;
18526;SDS011;9393;42.158;24.748;2022-12-07T12:32:05;50.03;;;25.27;;
18526;SDS011;9393;42.158;24.748;2022-12-07T12:35:22;35.63;;;19.53;;
18526;SDS011;9393;42.158;24.748;2022-12-07T12:38:32;49.13;;;24.67;;
18526;SDS011;9393;42.158;24.748;2022-12-07T12:41:52;45.20;;;21.03;;
18526;SDS011;9393;42.158;24.748;2022-12-07T12:45:17;39.00;;;21.63;;
18526;SDS011;9393;42.158;24.748;2022-12-07T12:48:27;40.50;;;21.40;;
18526;SDS011;9393;42.158;24.748;2022-12-07T12:51:36;50.40;;;25.23;;
18526;SDS011;9393;42.158;24.748;2022-12-07T12:54:56;45.60;;;24.10;;
18526;SDS011;9393;42.158;24.748;2022-12-07T13:01:56;38.83;;;20.37;;
18526;SDS011;9393;42.158;24.748;2022-12-07T13:05:19;45.77;;;22.67;;
18526;SDS011;9393;42.158;24.748;2022-12-07T13:08:24;36.23;;;16.43;;
18526;SDS011;9393;42.158;24.748;2022-12-07T13:11:36;29.30;;;15.80;;
18526;SDS011;9393;42.158;24.748;2022-12-07T13:14:55;36.60;;;17.73;;
18526;SDS011;9393;42.158;24.748;2022-12-07T13:18:03;35.83;;;16.87;;
18526;SDS011;9393;42.158;24.748;2022-12-07T13:21:41;34.93;;;17.17;;
18526;SDS011;9393;42.158;24.748;2022-12-07T13:24:46;33.37;;;16.43;;
18526;SDS011;9393;42.158;24.748;2022-12-07T13:27:52;33.70;;;16.33;;
18526;SDS011;9393;42.158;24.748;2022-12-07T13:31:03;31.37;;;16.17;;
18526;SDS011;9393;42.158;24.748;2022-12-07T13:34:29;27.40;;;15.77;;
18526;SDS011;9393;42.158;24.748;2022-12-07T13:37:35;28.60;;;16.27;;
18526;SDS011;9393;42.158;24.748;2022-12-07T13:40:39;32.50;;;17.13;;
18526;SDS011;9393;42.158;24.748;2022-12-07T13:43:44;32.20;;;15.37;;
18526;SDS011;9393;42.158;24.748;2022-12-07T13:46:50;29.70;;;15.53;;
18526;SDS011;9393;42.158;24.748;2022-12-07T13:50:02;37.53;;;17.43;;
18526;SDS011;9393;42.158;24.748;2022-12-07T13:53:26;32.93;;;16.70;;
18526;SDS011;9393;42.158;24.748;2022-12-07T13:56:32;34.47;;;16.23;;
18526;SDS011;9393;42.158;24.748;2022-12-07T13:59:37;35.40;;;18.90;;
18526;SDS011;9393;42.158;24.748;2022-12-07T14:02:53;48.90;;;24.23;;
18526;SDS011;9393;42.158;24.748;2022-12-07T14:06:04;34.97;;;17.63;;
18526;SDS011;9393;42.158;24.748;2022-12-07T14:09:17;33.93;;;16.47;;
18526;SDS011;9393;42.158;24.748;2022-12-07T14:12:22;31.80;;;15.60;;
18526;SDS011;9393;42.158;24.748;2022-12-07T14:15:28;32.93;;;16.63;;
18526;SDS011;9393;42.158;24.748;2022-12-07T14:18:36;30.43;;;16.97;;
18526;SDS011;9393;42.158;24.748;2022-12-07T14:21:43;33.47;;;16.03;;
18526;SDS011;9393;42.158;24.748;2022-12-07T14:24:46;36.27;;;15.80;;
18526;SDS011;9393;42.158;24.748;2022-12-07T14:27:51;25.73;;;15.23;;
18526;SDS011;9393;42.158;24.748;2022-12-07T14:30:59;34.93;;;17.50;;
18526;SDS011;9393;42.158;24.748;2022-12-07T14:34:04;35.27;;;17.27;;
18526;SDS011;9393;42.158;24.748;2022-12-07T14:37:09;35.90;;;16.90;;
18526;SDS011;9393;42.158;24.748;2022-12-07T14:40:14;42.23;;;16.20;;
18526;SDS011;9393;42.158;24.748;2022-12-07T14:43:19;49.20;;;19.07;;
18526;SDS011;9393;42.158;24.748;2022-12-07T14:46:23;45.87;;;17.47;;
18526;SDS011;9393;42.158;24.748;2022-12-07T14:49:27;44.07;;;18.30;;
18526;SDS011;9393;42.158;24.748;2022-12-07T14:52:37;42.43;;;18.23;;
18526;SDS011;9393;42.158;24.748;2022-12-07T14:56:02;42.30;;;18.37;;
18526;SDS011;9393;42.158;24.748;2022-12-07T14:59:08;39.40;;;19.47;;
18526;SDS011;9393;42.158;24.748;2022-12-07T15:02:12;36.43;;;20.33;;
18526;SDS011;9393;42.158;24.748;2022-12-07T15:05:17;48.37;;;19.63;;
18526;SDS011;9393;42.158;24.748;2022-12-07T15:08:23;43.83;;;21.40;;
18526;SDS011;9393;42.158;24.748;2022-12-07T15:11:27;42.90;;;21.50;;
18526;SDS011;9393;42.158;24.748;2022-12-07T15:14:31;54.10;;;21.83;;
18526;SDS011;9393;42.158;24.748;2022-12-07T15:17:35;52.27;;;22.47;;
18526;SDS011;9393;42.158;24.748;2022-12-07T15:20:39;57.70;;;22.20;;
18526;SDS011;9393;42.158;24.748;2022-12-07T15:23:44;50.97;;;22.30;;
18526;SDS011;9393;42.158;24.748;2022-12-07T15:26:50;51.67;;;24.40;;
18526;SDS011;9393;42.158;24.748;2022-12-07T15:29:54;58.30;;;25.97;;
18526;SDS011;9393;42.158;24.748;2022-12-07T15:32:57;53.73;;;24.13;;
18526;SDS011;9393;42.158;24.748;2022-12-07T15:36:01;62.67;;;27.20;;
18526;SDS011;9393;42.158;24.748;2022-12-07T15:39:07;55.23;;;26.07;;
18526;SDS011;9393;42.158;24.748;2022-12-07T15:42:16;67.70;;;32.07;;
18526;SDS011;9393;42.158;24.748;2022-12-07T15:45:19;64.33;;;31.60;;
18526;SDS011;9393;42.158;24.748;2022-12-07T15:48:23;60.50;;;27.20;;
18526;SDS011;9393;42.158;24.748;2022-12-07T15:51:29;50.30;;;25.30;;
18526;SDS011;9393;42.158;24.748;2022-12-07T15:54:34;48.50;;;25.73;;
18526;SDS011;9393;42.158;24.748;2022-12-07T15:57:38;50.27;;;25.60;;
18526;SDS011;9393;42.158;24.748;2022-12-07T16:00:42;56.77;;;27.37;;
18526;SDS011;9393;42.158;24.748;2022-12-07T16:03:46;59.43;;;28.97;;
18526;SDS011;9393;42.158;24.748;2022-12-07T16:06:50;53.20;;;26.77;;
18526;SDS011;9393;42.158;24.748;2022-12-07T16:09:55;49.53;;;26.40;;
18526;SDS011;9393;42.158;24.748;2022-12-07T16:12:59;62.00;;;30.57;;
18526;SDS011;9393;42.158;24.748;2022-12-07T16:16:03;83.20;;;36.40;;
18526;SDS011;9393;42.158;24.748;2022-12-07T16:19:08;89.87;;;40.50;;
18526;SDS011;9393;42.158;24.748;2022-12-07T16:22:12;124.70;;;55.20;;
18526;SDS011;9393;42.158;24.748;2022-12-07T16:25:18;77.90;;;36.73;;
18526;SDS011;9393;42.158;24.748;2022-12-07T16:28:21;109.87;;;54.57;;
18526;SDS011;9393;42.158;24.748;2022-12-07T16:31:26;92.17;;;44.73;;
18526;SDS011;9393;42.158;24.748;2022-12-07T16:34:30;94.50;;;57.17;;
18526;SDS011;9393;42.158;24.748;2022-12-07T16:37:34;70.63;;;35.73;;
18526;SDS011;9393;42.158;24.748;2022-12-07T16:40:39;90.53;;;43.80;;
18526;SDS011;9393;42.158;24.748;2022-12-07T16:43:43;148.63;;;94.53;;
18526;SDS011;9393;42.158;24.748;2022-12-07T16:46:47;178.10;;;102.67;;
18526;SDS011;9393;42.158;24.748;2022-12-07T16:49:51;112.53;;;68.37;;
18526;SDS011;9393;42.158;24.748;2022-12-07T16:52:55;69.23;;;38.33;;
18526;SDS011;9393;42.158;24.748;2022-12-07T16:56:00;68.40;;;37.40;;
18526;SDS011;9393;42.158;24.748;2022-12-07T16:59:04;62.13;;;33.63;;
18526;SDS011;9393;42.158;24.748;2022-12-07T17:02:08;64.40;;;33.30;;
18526;SDS011;9393;42.158;24.748;2022-12-07T17:05:13;143.13;;;97.27;;
18526;SDS011;9393;42.158;24.748;2022-12-07T17:08:17;86.43;;;60.93;;
18526;SDS011;9393;42.158;24.748;2022-12-07T17:11:23;61.30;;;35.57;;
18526;SDS011;9393;42.158;24.748;2022-12-07T17:14:28;106.60;;;85.43;;
18526;SDS011;9393;42.158;24.748;2022-12-07T17:17:51;64.00;;;35.17;;
18526;SDS011;9393;42.158;24.748;2022-12-07T17:21:00;68.73;;;36.87;;
18526;SDS011;9393;42.158;24.748;2022-12-07T17:24:08;78.23;;;44.20;;
18526;SDS011;9393;42.158;24.748;2022-12-07T17:27:14;62.33;;;30.90;;
18526;SDS011;9393;42.158;24.748;2022-12-07T17:30:18;58.50;;;32.27;;
18526;SDS011;9393;42.158;24.748;2022-12-07T17:33:22;77.30;;;38.60;;
18526;SDS011;9393;42.158;24.748;2022-12-07T17:36:27;101.97;;;57.83;;
18526;SDS011;9393;42.158;24.748;2022-12-07T17:39:31;95.90;;;54.27;;
18526;SDS011;9393;42.158;24.748;2022-12-07T17:42:37;74.90;;;42.63;;
18526;SDS011;9393;42.158;24.748;2022-12-07T17:45:41;103.80;;;60.10;;
18526;SDS011;9393;42.158;24.748;2022-12-07T17:48:45;118.50;;;71.70;;
18526;SDS011;9393;42.158;24.748;2022-12-07T17:51:49;72.83;;;45.67;;
18526;SDS011;9393;42.158;24.748;2022-12-07T17:55:10;108.07;;;67.47;;
18526;SDS011;9393;42.158;24.748;2022-12-07T17:58:15;81.93;;;48.30;;
18526;SDS011;9393;42.158;24.748;2022-12-07T18:01:19;68.87;;;32.60;;
18526;SDS011;9393;42.158;24.748;2022-12-07T18:04:25;65.77;;;36.00;;
18526;SDS011;9393;42.158;24.748;2022-12-07T18:07:29;88.40;;;51.23;;
18526;SDS011;9393;42.158;24.748;2022-12-07T18:10:33;61.83;;;32.67;;
18526;SDS011;9393;42.158;24.748;2022-12-07T18:13:38;61.77;;;32.70;;
18526;SDS011;9393;42.158;24.748;2022-12-07T18:16:42;61.17;;;30.97;;
18526;SDS011;9393;42.158;24.748;2022-12-07T18:19:46;66.40;;;36.57;;
18526;SDS011;9393;42.158;24.748;2022-12-07T18:22:50;129.57;;;99.00;;